Accueil
METAR-TAF:

METAR-TAF

Aéroports :

Memmingen, Allemagne

latitude: 47-59-33N, longitude: 10-14-37E, altitude: 633 m

Observation

Le bulletin a été fait il y a 59 minutes, à 12:50 UTC
Vent 10 kt de est/nord-est, variant entre nord/nord-est et est
Température 21°C
Humidité 38%
Pression 1020 hPa
Visibilité 10 km ou plus
pas de nuages en-dessous de 1500 mètres et pas de cumulonimbus.

METAR: EDJA 011250Z 06010KT 020V090 CAVOK 21/06 Q1020

Heure: 15:49 (13:49 UTC)

Prévision

Le bulletin a été fait il y a 2 heures et 49 minutes, à 11:00 UTC
Prévision valable du 01 à 12 UTC au 01 à 21 UTC
Vent 12 kt de est/nord-est
Visibilité 10 km ou plus
Quelques nuages à une hauteur de 4000 ft
Evoluant progressivement
du 01 à 17 UTC au 01 à 19 UTC
Vent 4 kt de est/nord-est

TAF: EDJA 011100Z 0112/0121 06012KT 9999 FEW040 BECMG 0117/0119 06004KT

Observations et prévisions météorologiques de plus de 4000 aéroports (messages METAR et TAF).

Les stations disponibles sont représentées par des disques jaunes et rouges sur la carte.

Passer la souris dessus pour voir le nom de la station.

Cliquer dessus pour voir les observations et prévisions météorologiques.

Pour changer de carte: cliquez sur les boutons verts avec une croix noire pour zoomer, sur le bouton vert avec un tiret pour effectuer un zoom arrière, ou sur les flèches vertes pour les cartes adjacentes.


METAR-TAF: